FNKU

Details ICAO FNKU (SVP)
Name KUITO
Region Angola
Timezone Africa/Luanda (UTC+1.0)
Plans Departing 1
Arriving 2
Stats Elevation 5,618 ft / 1,712 m (AMSL)
Location -12.404633° 16.947412°
Runways 1
Magnetic Variation 3.931° W
Sunrise 2017-12-12 04:22:06 UTC / 2017-12-12 05:22:06 Local
Sunset 2017-12-12 17:12:36 UTC / 2017-12-12 18:12:36 Local
Advertisement - Login to hide

Runways

ID Width Length Bearing (true) Bearing (mag) Surface Threshold Offset Overrun Length
08 98 ft / 30 m 8,216 ft / 2,504 m 69.49° 73.42° Asphalt 0 ft / 0 m 0 ft / 0 m
26 98 ft / 30 m 8,216 ft / 2,504 m 249.49° 253.42° Asphalt 0 ft / 0 m 0 ft / 0 m

Map

Weather


0- 5 10 15 20 25 30 35+ Temperature / ° C

Clouds and Precipitation
Forecast for 2017-12-13 00:00 UTC. Updated 39 minutes ago

Ground ~20,000 ft ~40,000 ft Winds

METAR

Not found

TAF

TAF FNKU 121100Z 1212/1224 VRB03KT 5000 RA SCT010 BKN020 TEMPO 1218/1224 34010KT 8000 -RA FEW010 BKN035

Frequencies

Tower 118.70 MHz AFIS
Warning: Do not use this data for real-world aviation or navigation. No guarantee of current accuracy is given.